createdAt,value
2023-01-19T00:01:36.072Z,16.80
2023-01-19T00:04:06.381Z,16.80
2023-01-19T00:06:35.517Z,16.80
2023-01-19T00:09:04.685Z,16.80
2023-01-19T00:11:33.650Z,16.80
2023-01-19T00:14:02.759Z,16.80
2023-01-19T00:16:32.117Z,16.80
2023-01-19T00:19:01.162Z,16.80
2023-01-19T00:21:30.190Z,16.80
2023-01-19T00:23:59.250Z,16.80
2023-01-19T00:26:28.446Z,16.90
2023-01-19T00:28:57.816Z,17.00
2023-01-19T00:31:26.871Z,17.10
2023-01-19T00:33:55.916Z,17.10
2023-01-19T00:36:24.928Z,17.20
2023-01-19T00:38:53.904Z,17.40
2023-01-19T00:41:45.407Z,17.50
2023-01-19T00:44:14.687Z,17.50
2023-01-19T00:46:43.773Z,17.70
2023-01-19T00:49:13.072Z,17.80
2023-01-19T00:51:42.056Z,17.90
2023-01-19T00:54:11.440Z,18.00
2023-01-19T00:56:40.441Z,18.10
2023-01-19T00:59:09.468Z,18.30
2023-01-19T01:01:46.005Z,18.40
2023-01-19T01:04:16.052Z,18.60
2023-01-19T01:06:45.053Z,18.70
2023-01-19T01:09:14.085Z,18.80
2023-01-19T01:11:44.295Z,19.00
2023-01-19T01:14:16.415Z,19.20
2023-01-19T01:16:45.506Z,19.30
2023-01-19T01:19:14.606Z,19.40
2023-01-19T01:21:43.666Z,19.50
2023-01-19T01:24:13.152Z,19.70
2023-01-19T01:26:42.401Z,19.80
2023-01-19T01:29:11.462Z,19.90
2023-01-19T01:31:40.579Z,20.00
2023-01-19T01:34:09.941Z,20.10
2023-01-19T01:36:39.080Z,20.10
2023-01-19T01:39:08.120Z,20.20
2023-01-19T01:41:37.155Z,20.20
2023-01-19T01:44:26.214Z,20.20
2023-01-19T01:46:55.735Z,20.20
2023-01-19T01:49:24.913Z,20.20
2023-01-19T01:51:55.698Z,20.20
2023-01-19T01:54:34.982Z,20.30
2023-01-19T01:57:07.292Z,20.40
2023-01-19T01:59:43.979Z,20.60
2023-01-19T02:02:38.831Z,20.70
2023-01-19T02:05:18.134Z,20.80
2023-01-19T02:08:32.624Z,21.00
2023-01-19T02:11:21.734Z,21.20
2023-01-19T02:13:51.279Z,21.50
2023-01-19T02:16:20.673Z,21.80
2023-01-19T02:18:49.983Z,22.00
2023-01-19T02:21:48.381Z,22.20
2023-01-19T02:24:18.649Z,22.40
2023-01-19T02:26:49.341Z,22.60
2023-01-19T02:29:24.207Z,22.70
2023-01-19T02:31:55.236Z,22.80
2023-01-19T02:34:24.968Z,22.90
2023-01-19T02:37:03.394Z,23.00
2023-01-19T02:40:01.285Z,23.20
2023-01-19T02:42:47.633Z,23.40
2023-01-19T02:45:23.284Z,23.60
2023-01-19T02:47:54.154Z,23.70
2023-01-19T02:50:50.887Z,23.70
2023-01-19T02:53:38.275Z,23.80
2023-01-19T02:56:35.983Z,23.80
2023-01-19T02:59:35.402Z,23.90
2023-01-19T03:02:13.820Z,24.00
2023-01-19T03:05:06.694Z,24.10
2023-01-19T03:07:53.333Z,24.20
2023-01-19T03:10:44.090Z,24.30
2023-01-19T03:13:17.902Z,24.40
2023-01-19T03:16:02.770Z,24.40
2023-01-19T03:18:34.839Z,24.50
2023-01-19T03:21:07.588Z,24.60
2023-01-19T03:23:38.919Z,24.70
2023-01-19T03:26:12.273Z,24.90
2023-01-19T03:28:45.435Z,25.00
2023-01-19T03:31:25.271Z,25.00
2023-01-19T03:34:02.739Z,25.10
2023-01-19T03:37:04.389Z,25.20
2023-01-19T03:39:33.754Z,25.30
2023-01-19T03:42:13.029Z,25.40
2023-01-19T03:44:43.754Z,25.40
2023-01-19T03:47:15.053Z,25.40
2023-01-19T03:49:46.651Z,25.40
2023-01-19T03:52:15.742Z,25.50
2023-01-19T03:54:44.977Z,25.50
2023-01-19T03:57:14.014Z,25.50
2023-01-19T03:59:43.001Z,25.70
2023-01-19T04:02:12.157Z,25.70
2023-01-19T04:04:41.217Z,25.80
2023-01-19T04:07:12.649Z,25.80
2023-01-19T04:09:41.740Z,25.90
2023-01-19T04:12:11.132Z,25.90
2023-01-19T04:14:40.263Z,26.00
2023-01-19T04:17:10.366Z,26.10
2023-01-19T04:19:39.730Z,26.10
2023-01-19T04:22:09.081Z,26.10
2023-01-19T04:24:38.036Z,26.20
2023-01-19T04:27:07.021Z,26.30
2023-01-19T04:29:36.045Z,26.30
2023-01-19T04:32:08.807Z,26.40
2023-01-19T04:34:37.859Z,26.40
2023-01-19T04:37:06.825Z,26.50
2023-01-19T04:39:36.151Z,26.60
2023-01-19T04:42:05.238Z,26.60
2023-01-19T04:44:34.284Z,26.60
2023-01-19T04:47:04.528Z,26.70
2023-01-19T04:49:33.684Z,26.90
2023-01-19T04:52:03.060Z,26.90
2023-01-19T04:54:32.562Z,27.00
2023-01-19T04:57:01.700Z,27.00
2023-01-19T04:59:33.196Z,27.10
2023-01-19T05:02:02.381Z,27.10
2023-01-19T05:04:31.491Z,27.20
2023-01-19T05:07:01.588Z,27.30
2023-01-19T05:09:30.645Z,27.30
2023-01-19T05:11:59.736Z,27.30
2023-01-19T05:14:28.720Z,27.30
2023-01-19T05:16:57.727Z,27.30
2023-01-19T05:19:26.723Z,27.30
2023-01-19T05:21:55.721Z,27.30
2023-01-19T05:24:24.680Z,27.30
2023-01-19T05:26:53.634Z,27.20
2023-01-19T05:29:22.685Z,27.10
2023-01-19T05:31:51.843Z,27.00
2023-01-19T05:34:21.332Z,27.00
2023-01-19T05:36:50.403Z,27.00
2023-01-19T05:39:19.338Z,27.00
2023-01-19T05:41:48.856Z,27.00
2023-01-19T05:44:17.823Z,27.00
2023-01-19T05:46:46.953Z,26.80
2023-01-19T05:49:16.229Z,26.80
2023-01-19T05:51:46.528Z,26.90
2023-01-19T05:54:16.799Z,27.00
2023-01-19T05:56:46.002Z,27.10
2023-01-19T05:59:19.383Z,27.10
2023-01-19T06:01:48.405Z,27.20
2023-01-19T06:04:17.495Z,27.20
2023-01-19T06:06:46.497Z,27.30
2023-01-19T06:09:18.528Z,27.40
2023-01-19T06:11:48.610Z,27.40
2023-01-19T06:14:20.038Z,27.50
2023-01-19T06:16:49.202Z,27.70
2023-01-19T06:19:18.202Z,27.70
2023-01-19T06:21:50.812Z,27.70
2023-01-19T06:24:20.361Z,27.70
2023-01-19T06:26:49.424Z,27.70
2023-01-19T06:29:18.618Z,27.80
2023-01-19T06:31:47.746Z,27.80
2023-01-19T06:34:16.913Z,27.90
2023-01-19T06:36:46.336Z,27.90
2023-01-19T06:39:15.276Z,28.00
2023-01-19T06:41:44.380Z,28.00
2023-01-19T06:44:13.385Z,28.10
2023-01-19T06:46:42.469Z,28.20
2023-01-19T06:49:11.474Z,28.30
2023-01-19T06:51:40.611Z,28.30
2023-01-19T06:54:09.574Z,28.20
2023-01-19T06:56:38.557Z,28.20
2023-01-19T06:59:07.912Z,28.30
2023-01-19T07:01:37.146Z,28.40
2023-01-19T07:04:06.348Z,28.50
2023-01-19T07:06:35.329Z,28.70
2023-01-19T07:09:08.994Z,28.70
2023-01-19T07:11:39.178Z,28.80
2023-01-19T07:14:08.205Z,28.90
2023-01-19T07:16:37.210Z,29.00
2023-01-19T07:19:07.006Z,29.00
2023-01-19T07:21:36.301Z,29.10
2023-01-19T07:24:05.502Z,29.20
2023-01-19T07:26:34.470Z,29.30
2023-01-19T07:29:03.430Z,29.30
2023-01-19T07:31:32.510Z,29.30
2023-01-19T07:34:04.408Z,29.30
2023-01-19T07:36:33.491Z,29.40
2023-01-19T07:39:02.590Z,29.40
2023-01-19T07:41:31.649Z,29.40
2023-01-19T07:44:00.617Z,29.30
2023-01-19T07:46:29.648Z,29.30
2023-01-19T07:48:58.654Z,29.20
2023-01-19T07:51:30.839Z,29.30
2023-01-19T07:53:59.831Z,29.30
2023-01-19T07:56:32.762Z,29.50
2023-01-19T07:59:02.122Z,29.60
2023-01-19T08:01:32.550Z,29.80
2023-01-19T08:04:01.896Z,29.80
2023-01-19T08:06:39.163Z,29.80
2023-01-19T08:09:08.393Z,29.80
2023-01-19T08:11:38.112Z,29.90
2023-01-19T08:14:08.039Z,30.00
2023-01-19T08:16:38.393Z,30.10
2023-01-19T08:19:07.502Z,30.00
2023-01-19T08:21:37.514Z,30.00
2023-01-19T08:24:06.800Z,30.00
2023-01-19T08:26:37.149Z,30.10
2023-01-19T08:29:07.902Z,30.00
2023-01-19T08:31:37.276Z,30.00
2023-01-19T08:34:06.698Z,30.00
2023-01-19T08:36:36.865Z,30.10
2023-01-19T08:39:06.316Z,30.10
2023-01-19T08:41:35.614Z,30.20
2023-01-19T08:44:04.646Z,30.20
2023-01-19T08:46:33.724Z,30.10
2023-01-19T08:49:02.842Z,30.00
2023-01-19T08:51:31.850Z,30.00
2023-01-19T08:54:00.884Z,29.90
2023-01-19T08:56:29.864Z,29.90
2023-01-19T08:59:09.275Z,29.90
2023-01-19T09:01:42.525Z,30.00
2023-01-19T09:04:11.619Z,29.90
2023-01-19T09:06:40.667Z,29.90
2023-01-19T09:09:09.680Z,29.90
2023-01-19T09:11:38.767Z,29.80
2023-01-19T09:14:07.997Z,29.80
2023-01-19T09:16:39.856Z,29.70
2023-01-19T09:19:10.014Z,29.70
2023-01-19T09:21:39.591Z,29.70
2023-01-19T09:24:09.133Z,29.60
2023-01-19T09:26:40.285Z,29.60
2023-01-19T09:29:09.260Z,29.50
2023-01-19T09:31:38.718Z,29.40
2023-01-19T09:34:07.892Z,29.40
2023-01-19T09:36:38.408Z,29.30
2023-01-19T09:39:07.754Z,29.20
2023-01-19T09:41:39.776Z,29.20
2023-01-19T09:44:16.459Z,29.10
2023-01-19T09:46:45.670Z,29.10
2023-01-19T09:49:32.845Z,29.00
2023-01-19T09:52:02.026Z,29.00
2023-01-19T09:54:54.121Z,28.90
2023-01-19T09:57:28.358Z,28.80
2023-01-19T10:00:00.708Z,28.70
2023-01-19T10:02:39.206Z,28.60
2023-01-19T10:05:23.377Z,28.50
2023-01-19T10:08:10.089Z,28.50
2023-01-19T10:10:42.220Z,28.40
2023-01-19T10:13:18.081Z,28.30
2023-01-19T10:15:56.198Z,28.20
2023-01-19T10:18:32.090Z,28.20
2023-01-19T10:21:05.463Z,28.10
2023-01-19T10:23:34.624Z,28.00
2023-01-19T10:26:19.085Z,27.90
2023-01-19T10:28:50.765Z,27.80
2023-01-19T10:31:24.058Z,27.70
2023-01-19T10:33:53.778Z,27.70
2023-01-19T10:36:26.868Z,27.60
2023-01-19T10:38:55.876Z,27.50
2023-01-19T10:41:47.894Z,27.40
2023-01-19T10:44:26.365Z,27.30
2023-01-19T10:46:59.258Z,27.20
2023-01-19T10:49:28.368Z,27.10
2023-01-19T10:52:00.035Z,27.00
2023-01-19T10:54:31.325Z,26.90
2023-01-19T10:57:06.405Z,26.90
2023-01-19T10:59:39.637Z,26.80
2023-01-19T11:02:29.879Z,26.70
2023-01-19T11:05:01.609Z,26.60
2023-01-19T11:07:36.986Z,26.60
2023-01-19T11:10:22.307Z,26.50
2023-01-19T11:13:04.002Z,26.40
2023-01-19T11:15:50.965Z,26.30
2023-01-19T11:18:28.978Z,26.20
2023-01-19T11:21:03.931Z,26.10
2023-01-19T11:23:45.087Z,26.00
2023-01-19T11:26:36.426Z,26.00
2023-01-19T11:29:06.394Z,25.90
2023-01-19T11:31:37.271Z,25.80
2023-01-19T11:34:23.400Z,25.80
2023-01-19T11:37:21.705Z,25.70
2023-01-19T11:39:53.791Z,25.60
2023-01-19T11:42:23.906Z,25.60
2023-01-19T11:45:15.764Z,25.50
2023-01-19T11:47:48.084Z,25.40
2023-01-19T11:50:31.107Z,25.30
2023-01-19T11:53:25.640Z,25.30
2023-01-19T11:55:59.923Z,25.20
2023-01-19T11:58:29.298Z,25.10
2023-01-19T12:01:01.061Z,25.10
2023-01-19T12:03:51.439Z,25.00
2023-01-19T12:06:27.093Z,24.90
2023-01-19T12:09:14.040Z,24.90
2023-01-19T12:11:50.317Z,24.80
2023-01-19T12:14:35.474Z,24.80
2023-01-19T12:17:07.263Z,24.60
2023-01-19T12:20:01.409Z,24.60
2023-01-19T12:22:35.894Z,24.50
2023-01-19T12:25:54.937Z,24.50
2023-01-19T12:28:31.713Z,24.30
2023-01-19T12:31:04.442Z,24.30
2023-01-19T12:33:40.965Z,24.20
2023-01-19T12:36:19.081Z,24.10
2023-01-19T12:38:50.094Z,24.00
2023-01-19T12:41:20.441Z,24.00
2023-01-19T12:44:10.180Z,23.90
2023-01-19T12:46:51.557Z,23.80
2023-01-19T12:49:40.028Z,23.80
2023-01-19T12:52:31.779Z,23.70
2023-01-19T12:55:16.107Z,23.70
2023-01-19T12:58:00.243Z,23.60
2023-01-19T13:00:47.301Z,23.60
2023-01-19T13:03:22.194Z,23.50
2023-01-19T13:05:54.334Z,23.50
2023-01-19T13:08:50.330Z,23.40
2023-01-19T13:11:23.715Z,23.40
2023-01-19T13:14:02.711Z,23.30
2023-01-19T13:16:31.625Z,23.20
2023-01-19T13:19:33.887Z,23.20
2023-01-19T13:22:41.010Z,23.20
2023-01-19T13:25:15.557Z,23.10
2023-01-19T13:27:44.667Z,23.10
2023-01-19T13:30:19.162Z,23.10
2023-01-19T13:32:49.319Z,23.00
2023-01-19T13:35:21.624Z,22.90
2023-01-19T13:37:51.745Z,22.90
2023-01-19T13:40:39.443Z,22.90
2023-01-19T13:43:21.000Z,22.90
2023-01-19T13:45:53.540Z,22.90
2023-01-19T13:48:25.253Z,22.80
2023-01-19T13:51:18.714Z,22.80
2023-01-19T13:54:02.737Z,22.70
2023-01-19T13:56:32.085Z,22.70
2023-01-19T13:59:12.852Z,22.60
2023-01-19T14:01:45.079Z,22.70
2023-01-19T14:04:46.512Z,22.60
2023-01-19T14:07:27.294Z,22.60
2023-01-19T14:10:13.418Z,22.50
2023-01-19T14:12:58.112Z,22.50
2023-01-19T14:15:28.649Z,22.40
2023-01-19T14:18:16.048Z,22.40
2023-01-19T14:21:19.323Z,22.30
2023-01-19T14:24:19.155Z,22.30
2023-01-19T14:27:15.553Z,22.20
2023-01-19T14:29:46.724Z,22.20
2023-01-19T14:32:24.129Z,22.10
2023-01-19T14:35:05.320Z,22.10
2023-01-19T14:37:39.399Z,22.10
2023-01-19T14:40:14.834Z,22.10
2023-01-19T14:43:07.266Z,22.00
2023-01-19T14:45:40.377Z,22.00
2023-01-19T14:48:18.184Z,22.00
2023-01-19T14:51:01.914Z,22.10
2023-01-19T14:53:37.968Z,22.00
2023-01-19T14:56:08.551Z,22.00
2023-01-19T14:58:37.930Z,22.10
2023-01-19T15:01:07.534Z,22.10
2023-01-19T15:03:45.607Z,22.10
2023-01-19T15:06:20.876Z,22.10
2023-01-19T15:08:51.300Z,22.10
2023-01-19T15:11:26.233Z,22.10
2023-01-19T15:13:56.618Z,22.10
2023-01-19T15:16:29.322Z,22.10
2023-01-19T15:18:58.345Z,22.10
2023-01-19T15:21:27.695Z,22.10
2023-01-19T15:23:59.268Z,22.10
2023-01-19T15:26:28.840Z,22.10
2023-01-19T15:28:58.117Z,22.10
2023-01-19T15:31:27.894Z,22.10
2023-01-19T15:33:57.269Z,22.10
2023-01-19T15:36:26.316Z,22.10
2023-01-19T15:38:55.324Z,22.10
2023-01-19T15:41:32.845Z,22.20
2023-01-19T15:44:02.034Z,22.20
2023-01-19T15:46:31.029Z,22.10
2023-01-19T15:49:00.128Z,22.10
2023-01-19T15:51:29.340Z,22.20
2023-01-19T15:53:58.423Z,22.10
2023-01-19T15:56:32.589Z,22.10
2023-01-19T15:59:01.314Z,22.10
2023-01-19T16:01:35.667Z,22.10
2023-01-19T16:04:08.205Z,22.00
2023-01-19T16:06:37.561Z,22.00
2023-01-19T16:09:06.683Z,22.00
2023-01-19T16:11:36.803Z,21.90
2023-01-19T16:14:05.956Z,21.90
2023-01-19T16:16:35.093Z,21.90
2023-01-19T16:19:04.374Z,21.80
2023-01-19T16:21:40.790Z,21.80
2023-01-19T16:24:09.880Z,21.80
2023-01-19T16:26:38.859Z,21.70
2023-01-19T16:29:11.690Z,21.70
2023-01-19T16:31:42.449Z,21.60
2023-01-19T16:34:12.381Z,21.60
2023-01-19T16:36:42.901Z,21.50
2023-01-19T16:39:16.798Z,21.50
2023-01-19T16:41:51.999Z,21.40
2023-01-19T16:44:20.541Z,21.40
2023-01-19T16:46:52.693Z,21.30
2023-01-19T16:49:28.473Z,21.30
2023-01-19T16:51:59.537Z,21.20
2023-01-19T16:54:30.359Z,21.20
2023-01-19T16:56:59.969Z,21.10
2023-01-19T16:59:30.403Z,21.10
2023-01-19T17:01:59.715Z,21.00
2023-01-19T17:04:29.140Z,21.00
2023-01-19T17:06:58.296Z,20.90
2023-01-19T17:09:27.290Z,20.90
2023-01-19T17:11:56.504Z,20.80
2023-01-19T17:14:25.561Z,20.80
2023-01-19T17:17:38.014Z,20.70
2023-01-19T17:20:07.619Z,20.70
2023-01-19T17:22:36.530Z,20.70
2023-01-19T17:25:05.816Z,20.70
2023-01-19T17:27:37.010Z,20.60
2023-01-19T17:30:06.373Z,20.50
2023-01-19T17:32:35.247Z,20.50
2023-01-19T17:35:04.252Z,20.50
2023-01-19T17:37:33.159Z,20.50
2023-01-19T17:40:02.179Z,20.40
2023-01-19T17:42:31.180Z,20.40
2023-01-19T17:45:00.318Z,20.40
2023-01-19T17:47:29.217Z,20.30
2023-01-19T17:49:58.157Z,20.30
2023-01-19T17:52:27.022Z,20.30
2023-01-19T17:54:55.895Z,20.20
2023-01-19T17:57:24.837Z,20.20
2023-01-19T17:59:53.698Z,20.20
2023-01-19T18:02:25.686Z,20.10
2023-01-19T18:04:54.632Z,20.10
2023-01-19T18:07:24.599Z,20.10
2023-01-19T18:09:56.293Z,20.00
2023-01-19T18:12:26.154Z,20.00
2023-01-19T18:14:55.040Z,20.00
2023-01-19T18:17:23.960Z,19.90
2023-01-19T18:19:53.069Z,19.90
2023-01-19T18:22:21.972Z,19.90
2023-01-19T18:24:50.883Z,19.80
2023-01-19T18:27:22.513Z,19.80
2023-01-19T18:29:51.899Z,19.80
2023-01-19T18:32:22.164Z,19.70
2023-01-19T18:34:53.438Z,19.70
2023-01-19T18:37:22.382Z,19.70
2023-01-19T18:39:51.626Z,19.70
2023-01-19T18:42:20.523Z,19.70
2023-01-19T18:44:49.676Z,19.60
2023-01-19T18:47:18.667Z,19.60
2023-01-19T18:49:47.580Z,19.60
2023-01-19T18:52:16.471Z,19.50
2023-01-19T18:54:45.341Z,19.60
2023-01-19T18:57:14.268Z,19.50
2023-01-19T18:59:44.994Z,19.50
2023-01-19T19:02:14.558Z,19.40
2023-01-19T19:04:43.826Z,19.40
2023-01-19T19:07:12.743Z,19.40
2023-01-19T19:09:41.665Z,19.40
2023-01-19T19:12:10.818Z,19.30
2023-01-19T19:14:39.721Z,19.30
2023-01-19T19:17:08.618Z,19.30
2023-01-19T19:19:37.589Z,19.30
2023-01-19T19:22:06.530Z,19.20
2023-01-19T19:24:36.493Z,19.20
2023-01-19T19:27:05.419Z,19.20
2023-01-19T19:29:36.207Z,19.20
2023-01-19T19:32:05.195Z,19.10
2023-01-19T19:34:34.856Z,19.10
2023-01-19T19:37:03.823Z,19.10
2023-01-19T19:39:32.908Z,19.00
2023-01-19T19:42:01.870Z,19.00
2023-01-19T19:44:30.903Z,19.00
2023-01-19T19:46:59.869Z,19.00
2023-01-19T19:49:28.842Z,18.90
2023-01-19T19:51:57.715Z,18.90
2023-01-19T19:54:26.682Z,18.90
2023-01-19T19:56:55.762Z,18.90
2023-01-19T19:59:24.689Z,18.90
2023-01-19T20:01:55.517Z,18.90
2023-01-19T20:04:26.382Z,18.80
2023-01-19T20:06:55.332Z,18.80
2023-01-19T20:09:24.844Z,18.80
2023-01-19T20:11:54.013Z,18.80
2023-01-19T20:14:24.959Z,18.80
2023-01-19T20:16:55.419Z,18.70
2023-01-19T20:19:24.308Z,18.70
2023-01-19T20:21:53.358Z,18.60
2023-01-19T20:24:22.999Z,18.60
2023-01-19T20:26:53.981Z,18.70
2023-01-19T20:29:23.177Z,18.60
2023-01-19T20:31:55.353Z,18.60
2023-01-19T20:34:28.138Z,18.60
2023-01-19T20:36:57.480Z,18.60
2023-01-19T20:39:26.956Z,18.50
2023-01-19T20:41:55.981Z,18.50
2023-01-19T20:44:26.933Z,18.50
2023-01-19T20:46:56.798Z,18.50
2023-01-19T20:49:25.996Z,18.50
2023-01-19T20:51:55.248Z,18.40
2023-01-19T20:54:27.962Z,18.50
2023-01-19T20:56:57.387Z,18.40
2023-01-19T20:59:26.420Z,18.40
2023-01-19T21:01:56.101Z,18.40
2023-01-19T21:04:25.170Z,18.30
2023-01-19T21:06:54.132Z,18.40
2023-01-19T21:09:23.961Z,18.40
2023-01-19T21:11:52.833Z,18.30
2023-01-19T21:14:21.826Z,18.30
2023-01-19T21:16:51.666Z,18.30
2023-01-19T21:19:20.534Z,18.30
2023-01-19T21:21:49.465Z,18.30
2023-01-19T21:24:18.408Z,18.30
2023-01-19T21:26:47.287Z,18.30
2023-01-19T21:29:16.228Z,18.20
2023-01-19T21:31:45.162Z,18.20
2023-01-19T21:34:15.203Z,18.20
2023-01-19T21:36:45.818Z,18.20
2023-01-19T21:39:17.163Z,18.20
2023-01-19T21:41:46.437Z,18.10
2023-01-19T21:44:15.764Z,18.10
2023-01-19T21:46:47.935Z,18.10
2023-01-19T21:49:21.462Z,18.10
2023-01-19T21:51:51.751Z,18.00
2023-01-19T21:54:21.321Z,18.00
2023-01-19T21:56:50.184Z,18.00
2023-01-19T21:59:20.381Z,17.90
2023-01-19T22:01:49.914Z,17.90
2023-01-19T22:04:20.766Z,17.90
2023-01-19T22:06:49.699Z,17.90
2023-01-19T22:09:18.660Z,17.80
2023-01-19T22:11:47.576Z,17.80
2023-01-19T22:14:16.451Z,17.80
2023-01-19T22:16:45.381Z,17.70
2023-01-19T22:19:15.478Z,17.70
2023-01-19T22:21:44.414Z,17.70
2023-01-19T22:24:15.660Z,17.70
2023-01-19T22:26:44.566Z,17.70
2023-01-19T22:29:14.426Z,17.70
2023-01-19T22:31:44.167Z,17.60
2023-01-19T22:34:14.847Z,17.60
2023-01-19T22:36:44.065Z,17.60
2023-01-19T22:39:14.850Z,17.60
2023-01-19T22:41:46.474Z,17.60
2023-01-19T22:44:18.129Z,17.50
2023-01-19T22:46:47.088Z,17.50
2023-01-19T22:49:17.939Z,17.50
2023-01-19T22:51:47.595Z,17.50
2023-01-19T22:54:16.796Z,17.50
2023-01-19T22:56:46.876Z,17.40
2023-01-19T22:59:15.889Z,17.50
2023-01-19T23:01:46.022Z,17.40
2023-01-19T23:04:17.100Z,17.40
2023-01-19T23:06:50.464Z,17.50
2023-01-19T23:09:19.881Z,17.50
2023-01-19T23:11:51.645Z,17.50
2023-01-19T23:14:22.881Z,17.50
2023-01-19T23:16:51.865Z,17.50
2023-01-19T23:19:21.233Z,17.40
2023-01-19T23:21:54.053Z,17.40
2023-01-19T23:24:23.129Z,17.40
2023-01-19T23:26:52.800Z,17.40
2023-01-19T23:29:21.790Z,17.40
2023-01-19T23:31:51.238Z,17.30
2023-01-19T23:34:20.176Z,17.30
2023-01-19T23:36:49.131Z,17.30
2023-01-19T23:39:23.264Z,17.30
2023-01-19T23:41:52.476Z,17.30
2023-01-19T23:44:21.569Z,17.20
2023-01-19T23:46:50.569Z,17.20
2023-01-19T23:49:19.583Z,17.20
2023-01-19T23:51:48.579Z,17.20
2023-01-19T23:54:20.317Z,17.20
2023-01-19T23:56:49.375Z,17.20
2023-01-19T23:59:18.483Z,17.20
